Time;durP1;ratioP1;P1;durP2;ratioP2;P2;SDS_P1;SDS_P2;PMS_P1;PMS_P2;Temp;Humidity;BMP_temperature;BMP_pressure;BME280_temperature;BME280_humidity;BME280_pressure;Samples;Min_cycle;Max_cycle;Signal;HPM_P1;HPM_P2
2020/12/28 00:01:59;;;;;;;25.43;10.65;;;;;;;1.36;74.07;98158.92;1720851;83;21512;-77
2020/12/28 00:04:26;;;;;;;31.80;10.20;;;;;;;1.42;74.16;98154.30;1681170;83;21170;-77
2020/12/28 00:06:52;;;;;;;22.00;8.88;;;;;;;1.49;74.21;98161.84;1663354;84;21189;-77
2020/12/28 00:09:18;;;;;;;26.85;9.90;;;;;;;1.50;74.29;98160.86;1686597;84;22086;-77
2020/12/28 00:11:45;;;;;;;17.12;7.78;;;;;;;1.51;74.34;98158.55;1691067;84;21173;-77
2020/12/28 00:14:11;;;;;;;22.05;8.60;;;;;;;1.51;74.42;98153.29;1666228;84;21166;-77
2020/12/28 00:16:37;;;;;;;21.62;9.05;;;;;;;1.50;74.46;98150.36;1665187;84;21145;-77
2020/12/28 00:19:04;;;;;;;14.93;7.62;;;;;;;1.48;74.51;98137.88;1663499;85;21210;-77
2020/12/28 00:21:30;;;;;;;17.55;7.17;;;;;;;1.46;74.57;98146.42;1671042;84;22212;-77
2020/12/28 00:23:57;;;;;;;19.05;7.62;;;;;;;1.46;74.62;98129.84;1688804;84;21631;-77
2020/12/28 00:26:25;;;;;;;15.78;7.60;;;;;;;1.44;74.68;98127.38;1691428;84;21185;-77
2020/12/28 00:28:51;;;;;;;19.15;8.93;;;;;;;1.42;74.72;98116.23;1690988;84;21189;-77
2020/12/28 00:31:17;;;;;;;20.88;9.25;;;;;;;1.41;74.77;98116.39;1686077;84;21596;-77
2020/12/28 00:33:44;;;;;;;17.07;7.75;;;;;;;1.40;74.82;98105.58;1663457;84;21356;-77
2020/12/28 00:36:15;;;;;;;12.90;6.72;;;;;;;1.39;74.84;98095.56;1686975;84;21166;-77
2020/12/28 00:38:41;;;;;;;142.90;36.93;;;;;;;1.39;74.87;98092.12;1661984;85;21146;-77
2020/12/28 00:41:11;;;;;;;163.05;41.37;;;;;;;1.40;74.91;98082.77;1662311;84;21159;-77
2020/12/28 00:43:40;;;;;;;;;;;;;;;1.38;74.95;98083.42;1677405;84;21583;-78
2020/12/28 00:46:11;;;;;;;41.50;11.53;;;;;;;1.38;74.95;98076.85;1689251;84;22100;-77
2020/12/28 00:48:37;;;;;;;19.77;7.35;;;;;;;1.38;75.01;98067.66;1674808;84;21193;-77
2020/12/28 00:51:03;;;;;;;11.55;6.67;;;;;;;1.41;75.03;98068.63;1690066;84;21202;-76
2020/12/28 00:53:30;;;;;;;19.65;7.42;;;;;;;1.45;75.07;98079.13;1690876;84;21724;-76
2020/12/28 00:55:56;;;;;;;15.70;7.75;;;;;;;1.51;75.14;98062.69;1691371;84;21181;-76
2020/12/28 00:58:23;;;;;;;14.63;6.75;;;;;;;1.55;75.16;98043.98;1687523;84;21217;-76
2020/12/28 01:00:49;;;;;;;18.15;7.70;;;;;;;1.59;75.19;98062.33;1689279;84;21174;-77
2020/12/28 01:03:15;;;;;;;13.55;7.25;;;;;;;1.61;75.23;98056.43;1663529;86;21149;-77
2020/12/28 01:05:43;;;;;;;14.75;6.22;;;;;;;1.62;75.25;98049.67;1677270;84;21156;-77
2020/12/28 01:08:10;;;;;;;11.15;5.72;;;;;;;1.65;75.27;98047.22;1682211;84;21135;-76
2020/12/28 01:10:36;;;;;;;9.60;5.00;;;;;;;1.64;75.31;98045.08;1684223;83;21249;-76
2020/12/28 01:13:05;;;;;;;15.80;7.35;;;;;;;1.68;75.35;98044.25;1682544;83;21632;-77
2020/12/28 01:15:31;;;;;;;10.13;6.03;;;;;;;1.72;75.35;98035.86;1701939;83;21136;-77
2020/12/28 01:17:57;;;;;;;17.48;7.45;;;;;;;1.73;75.38;98040.10;1698304;83;21148;-76
2020/12/28 01:20:24;;;;;;;10.90;5.80;;;;;;;1.79;75.39;98032.05;1711180;83;21152;-77
2020/12/28 01:22:50;;;;;;;10.98;5.80;;;;;;;1.81;75.41;98021.67;1710898;83;21286;-77
2020/12/28 01:25:16;;;;;;;9.23;4.42;;;;;;;1.82;75.37;98017.24;1699179;83;21143;-77
2020/12/28 01:27:42;;;;;;;13.60;6.08;;;;;;;1.82;75.39;97998.85;1690095;83;21566;-76
2020/12/28 01:30:09;;;;;;;11.35;5.25;;;;;;;1.84;75.41;98002.11;1710804;82;21156;-76
2020/12/28 01:32:35;;;;;;;12.13;6.17;;;;;;;1.87;75.43;97999.95;1709028;83;21164;-76
2020/12/28 01:35:01;;;;;;;11.57;6.20;;;;;;;1.89;75.41;97995.36;1694525;83;21209;-77
2020/12/28 01:37:27;;;;;;;15.43;6.03;;;;;;;1.89;75.41;97981.40;1682457;85;21565;-77
2020/12/28 01:39:54;;;;;;;13.60;6.62;;;;;;;1.87;75.41;97980.25;1681906;85;21580;-77
2020/12/28 01:42:20;;;;;;;9.53;5.65;;;;;;;1.85;75.44;97977.48;1684952;83;21132;-77
2020/12/28 01:44:46;;;;;;;9.63;5.60;;;;;;;1.85;75.44;97980.11;1683576;82;21164;-77
2020/12/28 01:47:13;;;;;;;10.48;5.42;;;;;;;1.84;75.46;97987.66;1690070;83;21212;-77
2020/12/28 01:49:39;;;;;;;11.60;6.60;;;;;;;1.84;75.46;97988.97;1694575;83;21171;-77
2020/12/28 01:52:06;;;;;;;13.15;6.03;;;;;;;1.83;75.49;97980.80;1708762;83;21177;-77
2020/12/28 01:54:32;;;;;;;14.87;6.75;;;;;;;1.84;75.52;97985.03;1711073;83;21613;-76
2020/12/28 01:56:58;;;;;;;14.93;6.65;;;;;;;1.81;75.54;97978.81;1706966;83;21569;-77
2020/12/28 01:59:24;;;;;;;10.68;5.47;;;;;;;1.80;75.57;97969.29;1666456;85;21164;-77
2020/12/28 02:01:53;;;;;;;10.28;5.22;;;;;;;1.80;75.60;97966.66;1701615;83;21183;-77
2020/12/28 02:04:19;;;;;;;8.45;5.33;;;;;;;1.81;75.64;97961.73;1696962;82;21192;-77
2020/12/28 02:06:47;;;;;;;8.85;5.37;;;;;;;1.80;75.65;97956.16;1674375;84;21224;-77
2020/12/28 02:09:13;;;;;;;13.15;5.78;;;;;;;1.78;75.67;97950.27;1674081;85;21624;-77
2020/12/28 02:11:40;;;;;;;11.35;5.45;;;;;;;1.77;75.69;97965.21;1680069;84;22089;-76
2020/12/28 02:14:06;;;;;;;11.70;5.03;;;;;;;1.77;75.70;97968.33;1702002;84;21594;-77
2020/12/28 02:16:32;;;;;;;10.58;5.28;;;;;;;1.77;75.71;97956.50;1686912;84;21149;-77
2020/12/28 02:18:59;;;;;;;8.93;5.45;;;;;;;1.77;75.78;97959.13;1677997;84;21169;-77
2020/12/28 02:21:27;;;;;;;10.63;5.33;;;;;;;1.80;75.80;97953.52;1673939;85;21127;-77
2020/12/28 02:23:53;;;;;;;11.22;5.80;;;;;;;1.84;75.83;97940.36;1674138;85;21224;-77
2020/12/28 02:26:20;;;;;;;10.13;5.58;;;;;;;1.87;75.82;97937.38;1676207;84;21175;-77
2020/12/28 02:28:46;;;;;;;11.12;5.50;;;;;;;1.89;75.89;97939.36;1702216;84;21487;-77
2020/12/28 02:31:12;;;;;;;8.85;5.12;;;;;;;1.89;75.88;97936.23;1701929;84;21181;-77
2020/12/28 02:33:40;;;;;;;9.85;4.78;;;;;;;1.92;75.89;97929.80;1702241;84;21557;-77
2020/12/28 02:36:08;;;;;;;8.08;4.53;;;;;;;1.94;75.91;97914.17;1702242;84;22048;-77
2020/12/28 02:38:37;;;;;;;7.58;3.87;;;;;;;1.96;75.92;97909.58;1673924;85;21192;-77
2020/12/28 02:41:06;;;;;;;10.50;5.35;;;;;;;2.02;75.95;97913.30;1673448;85;21704;-77
2020/12/28 02:43:32;;;;;;;9.53;5.97;;;;;;;2.09;75.98;97906.83;1675832;84;21636;-77
2020/12/28 02:45:59;;;;;;;8.63;5.08;;;;;;;2.14;76.00;97900.06;1674189;84;21632;-77
2020/12/28 02:48:25;;;;;;;12.75;5.80;;;;;;;2.18;76.02;97905.25;1697847;84;21217;-78
2020/12/28 02:50:51;;;;;;;10.45;5.50;;;;;;;2.22;76.01;97909.16;1702174;84;21629;-77
2020/12/28 02:53:18;;;;;;;8.95;4.35;;;;;;;2.23;76.03;97906.86;1700270;84;21132;-77
2020/12/28 02:55:44;;;;;;;12.65;6.22;;;;;;;2.25;76.04;97887.77;1699934;84;21557;-78
2020/12/28 02:58:10;;;;;;;9.80;5.30;;;;;;;2.30;76.05;97889.37;1702261;84;21545;-77
2020/12/28 03:00:36;;;;;;;9.70;5.65;;;;;;;2.33;76.07;97883.75;1701594;84;21182;-77
2020/12/28 03:03:03;;;;;;;11.22;5.80;;;;;;;2.38;76.10;97869.58;1702149;84;21195;-77
2020/12/28 03:05:29;;;;;;;13.05;6.35;;;;;;;2.45;76.13;97857.34;1702216;83;21157;-77
2020/12/28 03:07:56;;;;;;;10.05;5.25;;;;;;;2.48;76.10;97868.81;1702252;84;21124;-78
2020/12/28 03:10:22;;;;;;;7.80;4.80;;;;;;;2.48;76.12;97866.19;1702332;84;21533;-78
2020/12/28 03:12:48;;;;;;;11.65;5.55;;;;;;;2.50;76.14;97874.70;1682769;84;21317;-78
2020/12/28 03:15:15;;;;;;;14.33;6.47;;;;;;;2.51;76.17;97869.77;1674370;84;21657;-78
2020/12/28 03:17:41;;;;;;;16.97;7.60;;;;;;;2.50;76.17;97866.80;1684669;84;21152;-78
2020/12/28 03:20:07;;;;;;;12.35;6.22;;;;;;;2.47;76.19;97877.70;1700472;84;21183;-78
2020/12/28 03:22:33;;;;;;;11.80;5.25;;;;;;;2.48;76.22;97865.36;1702170;84;21148;-78
2020/12/28 03:25:00;;;;;;;10.15;6.00;;;;;;;2.47;76.24;97858.46;1702534;84;22088;-78
2020/12/28 03:27:26;;;;;;;14.35;6.22;;;;;;;2.48;76.23;97868.81;1702259;84;21605;-78
2020/12/28 03:29:52;;;;;;;10.60;5.90;;;;;;;2.51;76.28;97863.19;1682706;84;21191;-78
2020/12/28 03:32:19;;;;;;;11.18;5.40;;;;;;;2.53;76.31;97855.62;1687643;84;21172;-78
2020/12/28 03:34:45;;;;;;;10.08;5.87;;;;;;;2.53;76.32;97856.94;1702302;84;21144;-78
2020/12/28 03:37:11;;;;;;;14.80;6.72;;;;;;;2.59;76.35;97849.63;1702302;82;22111;-78
2020/12/28 03:39:38;;;;;;;11.25;6.05;;;;;;;2.61;76.35;97856.83;1702166;84;21601;-78
2020/12/28 03:42:04;;;;;;;18.10;7.65;;;;;;;2.61;76.37;97852.88;1702292;84;21168;-78
2020/12/28 03:44:30;;;;;;;13.38;6.42;;;;;;;2.61;76.37;97844.98;1700416;84;21453;-78
2020/12/28 03:46:56;;;;;;;10.10;5.62;;;;;;;2.61;76.38;97856.33;1694047;84;21139;-78
2020/12/28 03:49:23;;;;;;;8.28;4.55;;;;;;;2.63;76.38;97858.80;1702574;84;21277;-78
2020/12/28 03:51:49;;;;;;;11.48;5.78;;;;;;;2.66;76.40;97857.11;1687607;84;21163;-77
2020/12/28 03:54:15;;;;;;;7.80;4.45;;;;;;;2.70;76.40;97849.17;1674616;84;21569;-77
2020/12/28 03:56:41;;;;;;;12.13;5.47;;;;;;;2.72;76.42;97853.24;1674057;84;21589;-77
2020/12/28 03:59:08;;;;;;;10.53;6.33;;;;;;;2.76;76.41;97853.70;1674216;85;21163;-77
2020/12/28 04:01:34;;;;;;;13.30;7.05;;;;;;;2.79;76.42;97848.06;1701989;84;21303;-77
2020/12/28 04:04:00;;;;;;;13.50;6.42;;;;;;;2.81;76.41;97842.13;1702472;84;21172;-77
2020/12/28 04:06:27;;;;;;;9.95;5.67;;;;;;;2.83;76.42;97844.06;1710525;83;21591;-78
2020/12/28 04:08:53;;;;;;;10.58;5.60;;;;;;;2.85;76.39;97834.20;1692135;84;21171;-77
2020/12/28 04:11:19;;;;;;;9.55;4.78;;;;;;;2.88;76.39;97832.50;1692418;83;21188;-77
2020/12/28 04:13:45;;;;;;;11.28;5.97;;;;;;;2.90;76.38;97831.81;1691970;84;21213;-77
2020/12/28 04:16:15;;;;;;;9.35;5.55;;;;;;;2.94;76.38;97833.08;1692392;83;21227;-77
2020/12/28 04:18:41;;;;;;;8.98;5.87;;;;;;;2.97;76.37;97837.97;1708611;83;21164;-77
2020/12/28 04:21:07;;;;;;;10.50;6.25;;;;;;;2.98;76.38;97830.39;1720896;83;21197;-77
2020/12/28 04:23:34;;;;;;;7.92;5.15;;;;;;;2.98;76.35;97823.81;1711324;83;21164;-77
2020/12/28 04:26:00;;;;;;;11.05;5.65;;;;;;;2.99;76.36;97835.98;1713689;83;21216;-77
2020/12/28 04:28:26;;;;;;;10.75;5.37;;;;;;;3.00;76.32;97833.64;1721076;83;21201;-77
2020/12/28 04:30:52;;;;;;;9.70;5.70;;;;;;;3.01;76.33;97832.65;1695572;83;21230;-78
2020/12/28 04:33:18;;;;;;;12.75;5.97;;;;;;;3.02;76.29;97830.34;1692533;83;21892;-78
2020/12/28 04:35:45;;;;;;;9.78;6.15;;;;;;;3.02;76.27;97817.18;1692175;83;21640;-77
2020/12/28 04:38:11;;;;;;;8.68;5.83;;;;;;;3.03;76.26;97815.37;1692215;84;21247;-77
2020/12/28 04:40:38;;;;;;;10.63;6.17;;;;;;;3.05;76.24;97814.67;1691964;84;21144;-78
2020/12/28 04:43:13;;;;;;;27.40;18.32;;;;;;;3.04;76.21;97815.16;1692107;84;21144;-78
2020/12/28 04:45:40;;;;;;;23.35;11.68;;;;;;;3.04;76.21;97815.16;1694188;83;21640;-78
2020/12/28 04:48:09;;;;;;;19.62;9.65;;;;;;;3.04;76.20;97812.53;1705997;83;21566;-77
2020/12/28 04:50:38;;;;;;;15.32;8.10;;;;;;;3.06;76.18;97809.23;1720407;83;21211;-77
2020/12/28 04:53:04;;;;;;;9.08;4.70;;;;;;;3.06;76.16;97797.39;1718405;83;21184;-78
2020/12/28 04:55:31;;;;;;;7.15;4.70;;;;;;;3.07;76.14;97798.99;1716136;83;21186;-78
2020/12/28 04:57:58;;;;;;;7.85;4.87;;;;;;;3.09;76.12;97789.11;1692047;84;21175;-78
2020/12/28 05:00:24;;;;;;;9.45;5.17;;;;;;;3.10;76.09;97788.09;1694595;83;21188;-78
2020/12/28 05:02:51;;;;;;;8.53;5.35;;;;;;;3.11;76.08;97779.69;1720760;83;21216;-78
2020/12/28 05:05:17;;;;;;;7.25;4.17;;;;;;;3.12;76.06;97774.25;1719873;83;21167;-78
2020/12/28 05:07:49;;;;;;;7.33;4.62;;;;;;;3.13;76.06;97774.55;1702586;83;21161;-78
2020/12/28 05:10:24;;;;;;;4.87;3.60;;;;;;;3.15;76.04;97771.23;1701032;84;21160;-78
2020/12/28 05:12:50;;;;;;;5.95;4.15;;;;;;;3.17;76.04;97774.98;1702554;84;21197;-78
2020/12/28 05:15:17;;;;;;;6.78;3.92;;;;;;;3.17;76.00;97761.33;1702117;84;22104;-78
2020/12/28 05:17:52;;;;;;;6.60;3.90;;;;;;;3.18;75.96;97759.51;1700378;84;21183;-78
2020/12/28 05:20:24;;;;;;;7.40;3.50;;;;;;;3.17;75.96;97768.41;1674277;85;21097;-78
2020/12/28 05:22:53;;;;;;;5.62;3.85;;;;;;;3.18;75.94;97780.08;1673504;84;21180;-77
2020/12/28 05:25:20;;;;;;;6.47;3.97;;;;;;;3.20;75.96;97779.38;1674666;84;21159;-78
2020/12/28 05:27:47;;;;;;;7.22;4.35;;;;;;;3.21;75.95;97779.70;1674268;84;22134;-78
2020/12/28 05:30:13;;;;;;;6.10;3.92;;;;;;;3.20;75.92;97783.33;1674231;84;21191;-78
2020/12/28 05:32:47;;;;;;;6.15;3.90;;;;;;;3.20;75.91;97779.38;1674339;84;21143;-77
2020/12/28 05:35:14;;;;;;;6.45;4.40;;;;;;;3.21;75.92;97790.23;1673871;85;21155;-77
2020/12/28 05:37:44;;;;;;;6.80;4.00;;;;;;;3.23;75.89;97792.69;1674465;84;21276;-77
2020/12/28 05:40:11;;;;;;;5.20;3.47;;;;;;;3.23;75.85;97804.05;1673967;85;22200;-78
2020/12/28 05:45:17;;;;;;;5.58;3.72;;;;;;;3.31;75.86;97790.73;1803806;77;22753;-76
2020/12/28 05:47:52;;;;;;;6.87;4.60;;;;;;;3.30;75.84;97775.95;1758381;80;21549;-76
2020/12/28 05:50:23;;;;;;;6.62;3.98;;;;;;;3.30;75.82;97784.35;1757171;80;21237;-79
2020/12/28 05:52:59;;;;;;;7.50;4.22;;;;;;;3.30;75.83;97783.03;1759112;80;21036;-79
2020/12/28 05:55:27;;;;;;;7.37;3.98;;;;;;;3.29;75.84;97775.63;1757003;81;21581;-79
2020/12/28 05:57:54;;;;;;;6.83;3.83;;;;;;;3.27;75.83;97777.63;1763036;80;21172;-79
2020/12/28 06:00:21;;;;;;;8.83;4.85;;;;;;;3.26;75.83;97779.14;1785811;80;20953;-78
2020/12/28 06:02:47;;;;;;;17.50;7.92;;;;;;;3.25;75.80;97792.80;1787980;79;22241;-78
2020/12/28 06:05:16;;;;;;;7.35;4.47;;;;;;;3.24;75.80;97799.06;1788307;80;21572;-78
2020/12/28 06:07:42;;;;;;;6.03;3.83;;;;;;;3.25;75.79;97799.39;1787918;80;21161;-79
2020/12/28 06:10:09;;;;;;;5.90;3.60;;;;;;;3.25;75.77;97805.97;1787975;80;21143;-79
2020/12/28 06:12:36;;;;;;;7.67;4.60;;;;;;;3.28;75.78;97796.38;1787715;79;21127;-78
2020/12/28 06:15:03;;;;;;;7.78;3.98;;;;;;;3.31;75.78;97784.64;1787869;80;21194;-79
2020/12/28 06:17:35;;;;;;;8.23;4.17;;;;;;;3.32;75.78;97781.02;1787971;80;21160;-78
2020/12/28 06:20:05;;;;;;;65.70;21.65;;;;;;;3.32;75.79;97781.02;1765753;80;21132;-79
2020/12/28 06:22:32;;;;;;;8.18;4.50;;;;;;;3.33;75.78;97772.12;1757059;81;21096;-79
2020/12/28 06:25:10;;;;;;;6.10;3.50;;;;;;;3.34;75.79;97779.81;1759171;80;21099;-78
2020/12/28 06:27:43;;;;;;;7.60;4.12;;;;;;;3.34;75.76;97782.45;1757063;81;21744;-78
2020/12/28 06:30:18;;;;;;;5.25;3.17;;;;;;;3.36;75.75;97787.05;1757090;80;21170;-78
2020/12/28 06:32:50;;;;;;;6.42;3.33;;;;;;;3.36;75.74;97785.73;1755623;81;21120;-79
2020/12/28 06:35:17;;;;;;;6.20;3.27;;;;;;;3.38;75.74;97794.25;1753135;81;21136;-79
2020/12/28 06:37:53;;;;;;;19.40;6.03;;;;;;;3.38;75.72;97786.34;1755158;81;21184;-78
2020/12/28 06:40:34;;;;;;;7.58;4.58;;;;;;;3.40;75.71;97790.94;1785193;80;21218;-78
2020/12/28 06:43:18;;;;;;;9.45;5.80;;;;;;;3.44;75.73;97800.09;1815793;77;22763;-79
2020/12/28 06:45:45;;;;;;;47.55;28.85;;;;;;;3.40;75.71;97800.16;1784101;80;21632;-79
2020/12/28 06:48:24;;;;;;;10.65;7.37;;;;;;;3.40;75.70;97786.98;1756840;81;21791;-78
2020/12/28 06:50:52;;;;;;;9.00;5.70;;;;;;;3.42;75.71;97791.55;1765524;79;21191;-78
2020/12/28 06:53:23;;;;;;;8.08;4.87;;;;;;;3.41;75.70;97791.23;1756931;81;21540;-78
2020/12/28 06:55:49;;;;;;;20.85;7.92;;;;;;;3.40;75.69;97776.45;1764774;80;21024;-78
2020/12/28 06:58:15;;;;;;;14.63;5.50;;;;;;;3.39;75.66;97773.49;1765343;80;21546;-78
2020/12/28 07:00:41;;;;;;;9.58;4.40;;;;;;;3.38;75.64;97765.77;1784801;80;21192;-78
2020/12/28 07:03:14;;;;;;;5.22;3.55;;;;;;;3.39;75.64;97769.55;1787844;79;21048;-79
2020/12/28 07:05:41;;;;;;;6.25;3.55;;;;;;;3.40;75.63;97761.97;1785823;80;21521;-79
2020/12/28 07:08:09;;;;;;;4.97;3.15;;;;;;;3.39;75.61;97751.11;1785883;79;21166;-78
2020/12/28 07:10:36;;;;;;;12.05;4.50;;;;;;;3.39;75.63;97757.69;1787843;80;21130;-79
2020/12/28 07:13:07;;;;;;;7.17;3.27;;;;;;;3.40;75.63;97744.84;1787667;80;21183;-79
2020/12/28 07:15:34;;;;;;;6.53;3.90;;;;;;;3.43;75.64;97757.63;1788112;80;21170;-79
2020/12/28 07:18:07;;;;;;;4.17;3.02;;;;;;;3.45;75.63;97755.61;1787760;80;21116;-79
2020/12/28 07:20:35;;;;;;;8.48;3.42;;;;;;;3.44;75.64;97759.27;1775357;80;21167;-79
2020/12/28 07:23:02;;;;;;;6.45;3.40;;;;;;;3.46;75.63;97740.62;1757776;80;21166;-79
2020/12/28 07:25:29;;;;;;;51.83;20.50;;;;;;;3.46;75.64;97737.48;1788018;80;21648;-79
2020/12/28 07:27:57;;;;;;;26.42;15.53;;;;;;;3.47;75.65;97742.26;1787632;80;21540;-79
2020/12/28 07:30:24;;;;;;;31.95;15.45;;;;;;;3.49;75.62;97741.05;1764448;80;21134;-78
2020/12/28 07:32:58;;;;;;;27.30;14.15;;;;;;;3.48;75.62;97731.52;1755389;81;21155;-78
2020/12/28 07:35:25;;;;;;;10.30;4.58;;;;;;;3.48;75.62;97733.36;1764426;80;21103;-78
2020/12/28 07:37:53;;;;;;;12.93;5.15;;;;;;;3.50;75.62;97734.79;1759181;80;21292;-78
2020/12/28 07:40:20;;;;;;;11.15;6.00;;;;;;;3.51;75.63;97731.16;1759002;80;21577;-78
2020/12/28 07:42:47;;;;;;;48.58;31.65;;;;;;;3.55;75.62;97740.00;1789176;80;21181;-78
2020/12/28 07:45:15;;;;;;;44.55;32.70;;;;;;;3.56;75.60;97738.47;1773730;80;21130;-78
2020/12/28 07:47:54;;;;;;;40.03;32.20;;;;;;;3.57;75.60;97734.84;1788070;80;21158;-78
2020/12/28 07:50:21;;;;;;;33.53;12.10;;;;;;;3.57;75.58;97731.38;1791543;80;21210;-78
2020/12/28 07:53:14;;;;;;;24.02;9.90;;;;;;;3.57;75.58;97728.75;1791178;80;21104;-78
2020/12/28 08:36:20;;;;;;;139.88;44.65;;;;;;;3.66;75.45;97734.20;1838483;75;22026;-79
2020/12/28 08:38:47;;;;;;;292.50;80.85;;;;;;;3.63;75.43;97735.88;1829596;77;21882;-79
2020/12/28 08:41:15;;;;;;;136.77;40.58;;;;;;;3.64;75.43;97735.70;1833879;77;21632;-79
2020/12/28 08:43:46;;;;;;;596.55;167.55;;;;;;;3.64;75.40;97739.66;1830662;77;21227;-78
2020/12/28 08:46:12;;;;;;;250.47;68.78;;;;;;;3.64;75.36;97745.42;1840272;77;21137;-79
2020/12/28 08:48:42;;;;;;;50.12;15.95;;;;;;;3.64;75.29;97748.88;1829024;77;21151;-79
2020/12/28 08:51:18;;;;;;;317.65;85.12;;;;;;;3.65;75.29;97757.60;1855392;77;21568;-79
2020/12/28 08:53:47;;;;;;;97.37;27.80;;;;;;;3.65;75.26;97764.19;1862310;77;21244;-79
2020/12/28 08:56:13;;;;;;;155.40;43.45;;;;;;;3.65;75.25;97768.96;1863153;76;21640;-79
2020/12/28 08:58:40;;;;;;;75.25;25.43;;;;;;;3.66;75.24;97772.42;1837689;77;21172;-79
2020/12/28 09:01:06;;;;;;;177.12;52.45;;;;;;;3.64;75.24;97753.33;1829295;77;21207;-79
2020/12/28 09:03:36;;;;;;;66.40;20.43;;;;;;;3.63;75.21;97754.33;1833301;77;21095;-78
2020/12/28 09:06:05;;;;;;;151.95;38.70;;;;;;;3.62;75.17;97740.86;1856528;77;21236;-79
2020/12/28 09:08:32;;;;;;;37.55;13.50;;;;;;;3.63;75.16;97749.05;1831389;77;21166;-79
2020/12/28 09:10:58;;;;;;;183.22;46.92;;;;;;;3.64;75.14;97745.42;1845635;77;21230;-79
2020/12/28 09:13:25;;;;;;;447.63;125.60;;;;;;;3.66;75.12;97747.38;1836130;77;21156;-79
2020/12/28 09:15:51;;;;;;;64.77;22.05;;;;;;;3.66;75.09;97738.95;1838717;77;21154;-78
2020/12/28 09:18:18;;;;;;;19.12;8.60;;;;;;;3.69;75.11;97740.41;1850413;77;21188;-78
2020/12/28 09:20:44;;;;;;;128.15;37.42;;;;;;;3.73;75.12;97745.61;1840663;77;21155;-79
2020/12/28 09:23:11;;;;;;;228.65;68.42;;;;;;;3.74;75.09;97740.62;1833671;77;21139;-79
2020/12/28 09:25:37;;;;;;;54.08;18.85;;;;;;;3.76;75.05;97733.36;1840182;77;21593;-79
2020/12/28 09:28:03;;;;;;;94.52;32.85;;;;;;;3.79;74.98;97742.20;1839723;77;21123;-79
2020/12/28 09:30:29;;;;;;;37.10;13.95;;;;;;;3.82;74.96;97751.04;1842313;77;21198;-79
2020/12/28 09:32:56;;;;;;;152.85;49.25;;;;;;;3.85;74.94;97745.37;1839202;77;21137;-79
2020/12/28 09:35:22;;;;;;;71.50;23.77;;;;;;;3.87;74.89;97743.38;1842289;77;21166;-79
2020/12/28 09:37:48;;;;;;;97.45;32.78;;;;;;;3.91;74.88;97749.38;1836135;77;21604;-78
2020/12/28 09:40:15;;;;;;;83.42;28.83;;;;;;;3.93;74.83;97751.83;1837514;77;21709;-78
2020/12/28 09:42:41;;;;;;;21.97;10.88;;;;;;;3.94;74.85;97745.56;1850202;77;21190;-79
2020/12/28 09:47:52;;;;;;;21.77;10.82;;;;;;;4.00;74.81;97738.19;1805360;78;21921;-79
2020/12/28 09:50:18;;;;;;;21.48;10.32;;;;;;;3.95;74.79;97732.66;1779648;79;21652;-79
2020/12/28 09:52:45;;;;;;;25.50;11.93;;;;;;;3.95;74.78;97740.57;1773619;78;21309;-79
2020/12/28 09:55:11;;;;;;;28.27;12.05;;;;;;;3.92;74.75;97733.05;1788964;79;21198;-79
2020/12/28 09:57:37;;;;;;;17.17;7.87;;;;;;;3.94;74.75;97733.70;1779672;79;21191;-79
2020/12/28 10:00:04;;;;;;;10.90;7.05;;;;;;;3.96;74.73;97731.66;1779085;79;21200;-79
2020/12/28 10:02:31;;;;;;;15.13;8.00;;;;;;;3.98;74.73;97729.64;1769887;79;21141;-78
2020/12/28 10:04:57;;;;;;;7.75;3.95;;;;;;;4.01;74.70;97726.64;1785900;79;22085;-78
2020/12/28 10:07:24;;;;;;;9.13;5.87;;;;;;;4.07;74.68;97721.90;1785890;79;21175;-78
2020/12/28 10:09:50;;;;;;;23.02;8.53;;;;;;;4.10;74.67;97722.01;1785897;79;21632;-78
2020/12/28 10:12:16;;;;;;;27.67;15.28;;;;;;;4.13;74.62;97719.80;1787001;79;21656;-78
2020/12/28 10:14:42;;;;;;;15.68;10.70;;;;;;;4.15;74.62;97713.80;1787866;79;21132;-79
2020/12/28 10:17:09;;;;;;;16.50;9.28;;;;;;;4.18;74.59;97714.77;1782206;79;22035;-79
2020/12/28 10:19:35;;;;;;;14.23;7.20;;;;;;;4.20;74.58;97707.95;1774620;79;21219;-78
2020/12/28 10:22:01;;;;;;;39.18;15.03;;;;;;;4.18;74.52;97704.22;1775046;79;21175;-78
2020/12/28 10:24:27;;;;;;;15.90;8.15;;;;;;;4.20;74.47;97706.14;1792865;79;21112;-79
2020/12/28 10:26:54;;;;;;;33.55;14.68;;;;;;;4.20;74.40;97715.37;1779085;79;21136;-78
2020/12/28 10:29:20;;;;;;;48.80;19.92;;;;;;;4.20;74.36;97697.41;1799931;78;21192;-79
2020/12/28 10:31:46;;;;;;;26.75;11.48;;;;;;;4.20;74.29;97696.91;1793677;79;21164;-79
2020/12/28 10:34:13;;;;;;;95.55;27.17;;;;;;;4.21;74.25;97699.05;1781994;80;21167;-78
2020/12/28 10:36:39;;;;;;;25.12;11.15;;;;;;;4.22;74.18;97686.17;1766564;80;21120;-78
2020/12/28 10:39:05;;;;;;;54.27;18.65;;;;;;;4.25;74.16;97681.32;1776325;80;21613;-79
2020/12/28 10:41:32;;;;;;;25.60;11.95;;;;;;;4.24;74.12;97682.32;1774148;80;21179;-79
2020/12/28 10:43:59;;;;;;;21.48;9.13;;;;;;;4.25;74.07;97676.05;1734052;82;21636;-79
2020/12/28 10:46:25;;;;;;;15.72;7.42;;;;;;;4.30;74.06;97683.34;1755221;81;21588;-78
2020/12/28 10:48:51;;;;;;;16.55;7.90;;;;;;;4.31;74.00;97680.52;1770945;78;21183;-80
2020/12/28 10:51:18;;;;;;;74.05;26.40;;;;;;;4.32;73.96;97688.76;1773106;80;21137;-78
2020/12/28 10:53:44;;;;;;;20.08;9.08;;;;;;;4.33;73.91;97683.77;1776670;80;21203;-78
2020/12/28 10:56:10;;;;;;;16.50;7.70;;;;;;;4.33;73.87;97686.41;1783646;80;21123;-78
2020/12/28 10:58:37;;;;;;;29.18;11.88;;;;;;;4.33;73.81;97681.12;1783423;80;21561;-78
2020/12/28 11:01:05;;;;;;;55.55;19.48;;;;;;;4.36;73.76;97675.45;1768731;79;21659;-79
2020/12/28 11:03:33;;;;;;;43.13;16.30;;;;;;;4.36;73.71;97661.48;1771531;80;21156;-78
2020/12/28 11:06:02;;;;;;;27.27;9.15;;;;;;;4.36;73.67;97663.58;1771051;80;21249;-78
2020/12/28 11:08:30;;;;;;;23.55;8.25;;;;;;;4.38;73.61;97661.58;1757011;81;21089;-78
2020/12/28 11:10:56;;;;;;;64.40;21.55;;;;;;;4.42;73.59;97654.90;1770881;80;21136;-78
2020/12/28 11:13:22;;;;;;;195.53;62.40;;;;;;;4.41;73.54;97646.67;1760823;80;21169;-78
2020/12/28 11:15:49;;;;;;;36.35;13.48;;;;;;;4.39;73.46;97640.79;1765727;80;21128;-78
2020/12/28 11:18:15;;;;;;;40.70;17.17;;;;;;;4.38;73.38;97637.83;1785463;80;22080;-79
2020/12/28 11:20:41;;;;;;;33.25;15.15;;;;;;;4.41;73.37;97636.11;1781545;80;21220;-78
2020/12/28 11:23:08;;;;;;;18.70;9.55;;;;;;;4.38;73.32;97624.64;1752919;80;21144;-79
2020/12/28 11:25:34;;;;;;;10.60;6.25;;;;;;;4.40;73.21;97621.28;1767854;80;21128;-78
2020/12/28 11:28:01;;;;;;;20.90;8.73;;;;;;;4.42;73.14;97610.55;1756866;80;21121;-78
2020/12/28 11:30:27;;;;;;;36.03;18.95;;;;;;;4.43;73.05;97607.69;1752923;80;21183;-79
2020/12/28 11:32:53;;;;;;;20.15;10.48;;;;;;;4.44;73.02;97611.15;1742179;81;21695;-78
2020/12/28 11:35:21;;;;;;;28.07;13.80;;;;;;;4.46;72.94;97609.95;1777635;80;21586;-79
2020/12/28 11:37:47;;;;;;;43.48;18.23;;;;;;;4.45;72.86;97613.59;1759992;80;21137;-78
2020/12/28 11:40:13;;;;;;;19.10;8.60;;;;;;;4.48;72.84;97611.06;1760038;80;21652;-79
2020/12/28 11:42:39;;;;;;;17.07;8.35;;;;;;;4.45;72.73;97616.23;1783660;80;21251;-78
2020/12/28 11:45:08;;;;;;;21.17;11.33;;;;;;;4.45;72.68;97605.69;1772421;80;21119;-79
2020/12/28 11:47:38;;;;;;;11.25;6.50;;;;;;;4.48;72.64;97600.50;1756644;81;21632;-79
2020/12/28 11:50:04;;;;;;;10.32;6.47;;;;;;;4.48;72.61;97594.73;1756572;81;21155;-78
2020/12/28 11:52:31;;;;;;;10.08;6.30;;;;;;;4.51;72.57;97589.05;1756503;81;21981;-79
2020/12/28 11:54:57;;;;;;;15.68;7.92;;;;;;;4.50;72.52;97591.37;1756498;81;22107;-78
2020/12/28 11:57:23;;;;;;;15.00;7.58;;;;;;;4.51;72.45;97599.60;1756512;81;21168;-78
2020/12/28 11:59:50;;;;;;;14.25;8.18;;;;;;;4.53;72.41;97597.59;1756686;81;21159;-78
2020/12/28 12:02:21;;;;;;;21.90;9.65;;;;;;;4.58;72.36;97606.70;1756525;81;21159;-79
2020/12/28 12:04:51;;;;;;;18.10;10.25;;;;;;;4.60;72.32;97609.98;1759093;80;21661;-78
2020/12/28 12:07:20;;;;;;;23.10;12.55;;;;;;;4.65;72.29;97601.75;1756495;81;22031;-78
2020/12/28 12:09:47;;;;;;;14.18;7.90;;;;;;;4.65;72.23;97604.89;1757165;80;21111;-78
2020/12/28 12:12:14;;;;;;;27.48;13.32;;;;;;;4.65;72.16;97604.89;1762858;80;21140;-78
2020/12/28 12:14:40;;;;;;;17.17;9.70;;;;;;;4.64;72.09;97609.38;1769367;80;21104;-78
2020/12/28 12:17:06;;;;;;;17.52;8.95;;;;;;;4.65;72.04;97607.53;1756657;81;21045;-78
2020/12/28 12:19:33;;;;;;;33.08;14.93;;;;;;;4.67;72.02;97606.34;1750592;81;21188;-78
2020/12/28 12:21:59;;;;;;;20.08;10.55;;;;;;;4.66;71.96;97601.25;1750783;81;21092;-78